Time;durP1;ratioP1;P1;durP2;ratioP2;P2;SDS_P1;SDS_P2;PMS_P1;PMS_P2;Temp;Humidity;BMP_temperature;BMP_pressure;BME280_temperature;BME280_humidity;BME280_pressure;Samples;Min_cycle;Max_cycle;Signal;HPM_P1;HPM_P2
2023/07/12 00:00:58;;;;;;;4.83;4.43;;;;;;;;;;5013070;28;20458;-62
2023/07/12 00:03:24;;;;;;;5.60;4.20;;;;;;;;;;5013678;28;20514;-62
2023/07/12 00:05:51;;;;;;;3.73;3.60;;;;;;;;;;5013701;28;20880;-61
2023/07/12 00:08:24;;;;;;;6.00;4.60;;;;;;;;;;5013525;28;20440;-62
2023/07/12 00:10:50;;;;;;;8.20;4.40;;;;;;;;;;5013621;28;20419;-61
2023/07/12 00:13:16;;;;;;;5.30;4.20;;;;;;;;;;5013620;28;20496;-62
2023/07/12 00:15:43;;;;;;;6.83;4.33;;;;;;;;;;5013637;28;20511;-62
2023/07/12 00:18:13;;;;;;;4.23;3.37;;;;;;;;;;5013123;28;20498;-62
2023/07/12 00:20:39;;;;;;;4.63;4.27;;;;;;;;;;5013558;28;20416;-62
2023/07/12 00:23:05;;;;;;;4.63;4.23;;;;;;;;;;5012049;28;20425;-62
2023/07/12 00:25:33;;;;;;;6.33;4.60;;;;;;;;;;5013031;28;20443;-62
2023/07/12 00:27:59;;;;;;;10.07;5.90;;;;;;;;;;5013068;28;20478;-62
2023/07/12 00:30:29;;;;;;;5.77;4.63;;;;;;;;;;5013111;28;20780;-62
2023/07/12 00:32:56;;;;;;;4.80;4.40;;;;;;;;;;5013016;28;20421;-62
2023/07/12 00:35:26;;;;;;;8.80;5.17;;;;;;;;;;5013300;28;20418;-62
2023/07/12 00:37:53;;;;;;;8.47;5.37;;;;;;;;;;5013057;28;20885;-62
2023/07/12 00:40:22;;;;;;;9.77;5.37;;;;;;;;;;5012373;28;20473;-62
2023/07/12 00:42:52;;;;;;;5.70;5.30;;;;;;;;;;5012955;28;20434;-62
2023/07/12 00:45:20;;;;;;;4.73;4.33;;;;;;;;;;5012890;28;20419;-62
2023/07/12 00:47:48;;;;;;;5.57;4.90;;;;;;;;;;5011744;28;20448;-61
2023/07/12 00:50:18;;;;;;;7.37;5.30;;;;;;;;;;5012975;28;20491;-62
2023/07/12 00:52:45;;;;;;;8.20;5.80;;;;;;;;;;5012838;28;20494;-62
2023/07/12 00:55:29;;;;;;;8.20;5.50;;;;;;;;;;5012607;28;20410;-62
2023/07/12 00:57:55;;;;;;;5.47;5.00;;;;;;;;;;5012500;28;20471;-62
2023/07/12 01:00:23;;;;;;;12.03;5.30;;;;;;;;;;5012383;28;20960;-62
2023/07/12 01:02:49;;;;;;;7.73;5.17;;;;;;;;;;5012548;28;20515;-61
2023/07/12 01:05:16;;;;;;;6.23;5.70;;;;;;;;;;5012601;28;20424;-61
2023/07/12 01:07:42;;;;;;;15.10;5.10;;;;;;;;;;5012663;28;20445;-62
2023/07/12 01:10:08;;;;;;;12.30;5.90;;;;;;;;;;5012297;28;20442;-61
2023/07/12 01:12:34;;;;;;;14.20;5.90;;;;;;;;;;5011826;28;20444;-61
2023/07/12 01:15:00;;;;;;;7.10;5.23;;;;;;;;;;5012557;28;20530;-61
2023/07/12 01:17:26;;;;;;;8.80;5.47;;;;;;;;;;5012123;28;20977;-61
2023/07/12 01:19:52;;;;;;;12.70;5.87;;;;;;;;;;5012238;28;20413;-61
2023/07/12 01:22:18;;;;;;;7.30;5.83;;;;;;;;;;5012140;28;20433;-61
2023/07/12 01:24:44;;;;;;;8.00;4.80;;;;;;;;;;5012243;28;20416;-61
2023/07/12 01:27:15;;;;;;;8.13;6.10;;;;;;;;;;5012308;28;20785;-61
2023/07/12 01:29:42;;;;;;;7.20;6.50;;;;;;;;;;5012086;28;20426;-61
2023/07/12 01:32:08;;;;;;;7.70;5.73;;;;;;;;;;5010881;28;20446;-62
2023/07/12 01:34:34;;;;;;;9.33;5.53;;;;;;;;;;5012195;28;20431;-61
2023/07/12 01:37:04;;;;;;;7.33;5.63;;;;;;;;;;5012130;28;20473;-61
2023/07/12 01:39:30;;;;;;;10.80;5.70;;;;;;;;;;5012007;28;20427;-61
2023/07/12 01:41:58;;;;;;;9.83;6.77;;;;;;;;;;5011731;28;20761;-61
2023/07/12 01:44:27;;;;;;;6.07;5.10;;;;;;;;;;5011484;28;20502;-61
2023/07/12 01:46:53;;;;;;;10.13;5.90;;;;;;;;;;5010954;28;20508;-61
2023/07/12 01:49:19;;;;;;;8.40;5.60;;;;;;;;;;5011142;28;20434;-61
2023/07/12 01:51:45;;;;;;;9.00;6.50;;;;;;;;;;5012017;28;20586;-61
2023/07/12 01:54:11;;;;;;;8.10;6.00;;;;;;;;;;5011922;28;20442;-61
2023/07/12 01:56:37;;;;;;;9.33;6.20;;;;;;;;;;5011998;28;20423;-61
2023/07/12 01:59:05;;;;;;;8.50;5.97;;;;;;;;;;5012012;28;20443;-61
2023/07/12 02:01:31;;;;;;;10.23;7.23;;;;;;;;;;5010553;28;20435;-60
2023/07/12 02:03:59;;;;;;;14.00;7.40;;;;;;;;;;5013935;28;20930;-60
2023/07/12 02:06:28;;;;;;;7.10;5.70;;;;;;;;;;5015647;28;20505;-60
2023/07/12 02:08:54;;;;;;;11.63;7.00;;;;;;;;;;5015795;28;20428;-60
2023/07/12 02:11:19;;;;;;;16.40;7.33;;;;;;;;;;5015861;28;20444;-61
2023/07/12 02:13:45;;;;;;;7.87;6.80;;;;;;;;;;5015173;28;20510;-62
2023/07/12 02:16:11;;;;;;;9.90;6.63;;;;;;;;;;5015674;28;20444;-62
2023/07/12 02:18:37;;;;;;;14.27;6.53;;;;;;;;;;5015548;28;20901;-62
2023/07/12 02:21:03;;;;;;;12.20;6.87;;;;;;;;;;5015389;28;20422;-62
2023/07/12 02:23:29;;;;;;;7.70;6.87;;;;;;;;;;5015464;28;20460;-62
2023/07/12 02:25:55;;;;;;;7.20;6.50;;;;;;;;;;5015609;28;20414;-62
2023/07/12 02:28:21;;;;;;;6.73;6.13;;;;;;;;;;5015415;28;20418;-62
2023/07/12 02:30:48;;;;;;;7.80;6.57;;;;;;;;;;5015237;28;20468;-61
2023/07/12 02:33:14;;;;;;;13.93;6.60;;;;;;;;;;5015400;28;20453;-60
2023/07/12 02:35:42;;;;;;;7.17;6.50;;;;;;;;;;5015479;28;20415;-61
2023/07/12 02:38:08;;;;;;;9.47;6.53;;;;;;;;;;5015231;28;20475;-61
2023/07/12 02:40:34;;;;;;;10.20;7.27;;;;;;;;;;5015208;28;20434;-61
2023/07/12 02:43:03;;;;;;;13.80;6.67;;;;;;;;;;5015133;28;20424;-61
2023/07/12 02:45:29;;;;;;;16.57;7.87;;;;;;;;;;5015174;28;20419;-62
2023/07/12 02:47:55;;;;;;;10.53;6.00;;;;;;;;;;5014737;28;20428;-61
2023/07/12 02:50:21;;;;;;;7.03;6.43;;;;;;;;;;5014822;28;20515;-61
2023/07/12 02:52:49;;;;;;;7.97;6.30;;;;;;;;;;5014961;28;20414;-61
2023/07/12 02:55:15;;;;;;;7.70;7.07;;;;;;;;;;5015600;28;20466;-61
2023/07/12 02:57:43;;;;;;;10.57;6.30;;;;;;;;;;5014860;28;21003;-61
2023/07/12 03:00:10;;;;;;;6.80;6.17;;;;;;;;;;5014829;28;20510;-61
2023/07/12 03:02:38;;;;;;;10.83;6.60;;;;;;;;;;5012981;28;20443;-61
2023/07/12 03:05:04;;;;;;;15.83;7.27;;;;;;;;;;5014769;28;20424;-61
2023/07/12 03:07:30;;;;;;;11.57;6.80;;;;;;;;;;5014570;28;20423;-61
2023/07/12 03:09:57;;;;;;;17.73;6.80;;;;;;;;;;5014174;28;20413;-61
2023/07/12 03:12:25;;;;;;;12.47;7.27;;;;;;;;;;5014624;28;20546;-61
2023/07/12 03:14:52;;;;;;;11.80;7.10;;;;;;;;;;5014445;28;20786;-61
2023/07/12 03:17:18;;;;;;;13.13;6.93;;;;;;;;;;5013946;28;20887;-61
2023/07/12 03:19:44;;;;;;;13.93;7.20;;;;;;;;;;5014691;28;20408;-61
2023/07/12 03:22:10;;;;;;;13.30;7.87;;;;;;;;;;5014833;28;20456;-61
2023/07/12 03:24:36;;;;;;;12.90;7.47;;;;;;;;;;5014508;28;20796;-61
2023/07/12 03:27:02;;;;;;;11.70;7.93;;;;;;;;;;5012917;28;20586;-61
2023/07/12 03:29:28;;;;;;;11.03;7.47;;;;;;;;;;5014412;28;20455;-61
2023/07/12 03:31:54;;;;;;;11.70;7.63;;;;;;;;;;5013978;28;20428;-61
2023/07/12 03:34:20;;;;;;;14.20;7.93;;;;;;;;;;5013913;28;20566;-61
2023/07/12 03:36:48;;;;;;;14.37;7.83;;;;;;;;;;5012865;28;20420;-61
2023/07/12 03:39:15;;;;;;;9.80;7.20;;;;;;;;;;5014092;28;20452;-61
2023/07/12 03:41:41;;;;;;;14.20;8.10;;;;;;;;;;5014127;28;20470;-61
2023/07/12 03:44:07;;;;;;;10.53;7.60;;;;;;;;;;5013742;28;20488;-59
2023/07/12 03:46:33;;;;;;;11.57;7.37;;;;;;;;;;5014383;28;20483;-59
2023/07/12 03:49:01;;;;;;;13.47;7.30;;;;;;;;;;5014236;28;20443;-59
2023/07/12 03:51:27;;;;;;;13.63;6.77;;;;;;;;;;5012690;28;20537;-59
2023/07/12 03:53:55;;;;;;;10.00;7.70;;;;;;;;;;5012898;28;20431;-59
2023/07/12 03:56:21;;;;;;;15.60;7.13;;;;;;;;;;5013080;28;20510;-59
2023/07/12 03:58:50;;;;;;;12.73;7.37;;;;;;;;;;5013457;28;20945;-59
2023/07/12 04:01:18;;;;;;;13.57;7.67;;;;;;;;;;5013498;28;20850;-59
2023/07/12 04:03:44;;;;;;;14.27;7.50;;;;;;;;;;5013785;28;20431;-59
2023/07/12 04:06:12;;;;;;;12.73;7.47;;;;;;;;;;5013722;28;20442;-59
2023/07/12 04:08:38;;;;;;;9.30;7.10;;;;;;;;;;5013659;28;20794;-59
2023/07/12 04:11:07;;;;;;;10.53;7.07;;;;;;;;;;5013426;28;20431;-59
2023/07/12 04:13:33;;;;;;;14.87;7.07;;;;;;;;;;5013330;28;20763;-59
2023/07/12 04:16:00;;;;;;;19.67;8.20;;;;;;;;;;5013643;28;20814;-59
2023/07/12 04:18:27;;;;;;;13.13;8.00;;;;;;;;;;5013646;28;20472;-59
2023/07/12 04:20:58;;;;;;;11.67;6.93;;;;;;;;;;5013374;28;20433;-59
2023/07/12 04:23:24;;;;;;;10.00;6.87;;;;;;;;;;5013511;28;20472;-59
2023/07/12 04:25:57;;;;;;;11.37;6.90;;;;;;;;;;5013056;28;20415;-59
2023/07/12 04:28:26;;;;;;;8.27;7.43;;;;;;;;;;5013570;28;20422;-59
2023/07/12 04:30:52;;;;;;;12.20;7.20;;;;;;;;;;5013249;28;20436;-59
2023/07/12 04:33:18;;;;;;;15.13;8.17;;;;;;;;;;5013069;28;20470;-59
2023/07/12 04:35:44;;;;;;;10.33;7.77;;;;;;;;;;5013372;28;20499;-59
2023/07/12 04:38:12;;;;;;;16.63;8.03;;;;;;;;;;5011640;28;20521;-59
2023/07/12 04:40:38;;;;;;;16.97;7.70;;;;;;;;;;5012948;28;20440;-59
2023/07/12 04:43:04;;;;;;;11.70;7.97;;;;;;;;;;5012960;28;20814;-59
2023/07/12 04:45:30;;;;;;;11.57;7.33;;;;;;;;;;5013241;28;20401;-59
2023/07/12 04:47:58;;;;;;;10.60;7.40;;;;;;;;;;4995471;28;20450;-59
2023/07/12 04:50:26;;;;;;;10.80;7.63;;;;;;;;;;5012812;28;20490;-58
2023/07/12 04:52:54;;;;;;;7.63;6.93;;;;;;;;;;5012821;28;20510;-59
2023/07/12 04:55:22;;;;;;;11.63;7.37;;;;;;;;;;5012679;28;20520;-59
2023/07/12 04:57:48;;;;;;;11.37;7.47;;;;;;;;;;5012712;28;20479;-59
2023/07/12 05:00:17;;;;;;;7.90;6.63;;;;;;;;;;5012608;28;20476;-58
2023/07/12 05:02:43;;;;;;;10.70;7.60;;;;;;;;;;5011328;28;20435;-58
2023/07/12 05:05:11;;;;;;;7.17;6.47;;;;;;;;;;5012585;28;20459;-58
2023/07/12 05:07:37;;;;;;;7.90;6.17;;;;;;;;;;5012988;28;20861;-57
2023/07/12 05:10:03;;;;;;;15.10;6.80;;;;;;;;;;5011637;28;20503;-57
2023/07/12 05:12:30;;;;;;;11.53;7.33;;;;;;;;;;5013032;28;20424;-58
2023/07/12 05:14:56;;;;;;;10.13;7.60;;;;;;;;;;5012668;28;20433;-56
2023/07/12 05:17:28;;;;;;;11.03;7.40;;;;;;;;;;5012794;28;20458;-57
2023/07/12 05:19:57;;;;;;;12.53;7.10;;;;;;;;;;5012618;28;20448;-58
2023/07/12 05:22:25;;;;;;;22.83;8.00;;;;;;;;;;5012767;28;20421;-58
2023/07/12 05:24:52;;;;;;;8.37;6.90;;;;;;;;;;5012452;28;20424;-58
2023/07/12 05:27:18;;;;;;;7.00;6.30;;;;;;;;;;5012518;28;20419;-57
2023/07/12 05:29:44;;;;;;;8.43;6.37;;;;;;;;;;5012535;28;20408;-57
2023/07/12 05:32:10;;;;;;;18.00;6.83;;;;;;;;;;5011421;28;20416;-58
2023/07/12 05:34:37;;;;;;;8.47;6.97;;;;;;;;;;5011917;28;20505;-57
2023/07/12 05:37:05;;;;;;;7.27;6.70;;;;;;;;;;5012039;28;20961;-58
2023/07/12 05:39:32;;;;;;;7.23;6.63;;;;;;;;;;5011602;28;20472;-58
2023/07/12 05:41:58;;;;;;;18.40;7.00;;;;;;;;;;5012364;28;20433;-58
2023/07/12 05:44:24;;;;;;;10.17;7.37;;;;;;;;;;5012262;28;20846;-58
2023/07/12 05:46:52;;;;;;;14.07;7.03;;;;;;;;;;5012314;28;20462;-58
2023/07/12 05:49:18;;;;;;;8.67;6.67;;;;;;;;;;5012113;28;20447;-57
2023/07/12 05:51:45;;;;;;;9.60;6.70;;;;;;;;;;5012015;28;20895;-58
2023/07/12 05:54:14;;;;;;;12.67;6.10;;;;;;;;;;5012003;28;20478;-58
2023/07/12 05:56:40;;;;;;;9.53;7.03;;;;;;;;;;5011973;28;20918;-57
2023/07/12 05:59:06;;;;;;;17.47;6.60;;;;;;;;;;5011858;28;20416;-57
2023/07/12 06:01:32;;;;;;;12.43;6.23;;;;;;;;;;5011754;28;20491;-58
2023/07/12 06:04:01;;;;;;;11.23;7.03;;;;;;;;;;5011915;28;20492;-58
2023/07/12 06:06:27;;;;;;;15.10;6.53;;;;;;;;;;5012092;28;20399;-57
2023/07/12 06:08:53;;;;;;;12.97;6.20;;;;;;;;;;5011936;28;20814;-58
2023/07/12 06:11:19;;;;;;;8.37;6.30;;;;;;;;;;5011920;28;20445;-57
2023/07/12 06:13:47;;;;;;;16.93;6.40;;;;;;;;;;5010607;28;20797;-57
2023/07/12 06:16:13;;;;;;;7.90;5.90;;;;;;;;;;5011758;28;20824;-57
2023/07/12 06:18:39;;;;;;;9.30;6.77;;;;;;;;;;5011961;28;20834;-57
2023/07/12 06:21:08;;;;;;;5.77;5.33;;;;;;;;;;5011970;28;20515;-58
2023/07/12 06:23:34;;;;;;;13.17;6.97;;;;;;;;;;5011593;28;20466;-57
2023/07/12 06:26:00;;;;;;;11.53;6.77;;;;;;;;;;5012332;28;20394;-58
2023/07/12 06:28:26;;;;;;;10.20;6.20;;;;;;;;;;5010486;28;20776;-57
2023/07/12 06:30:52;;;;;;;7.47;6.70;;;;;;;;;;5011843;28;20439;-57
2023/07/12 06:33:18;;;;;;;6.63;6.10;;;;;;;;;;5011739;28;20522;-57
2023/07/12 06:35:45;;;;;;;9.03;6.83;;;;;;;;;;5010338;28;20519;-56
2023/07/12 06:38:13;;;;;;;9.97;8.37;;;;;;;;;;5010483;28;20484;-57
2023/07/12 06:40:41;;;;;;;10.93;9.27;;;;;;;;;;5011586;28;20894;-57
2023/07/12 06:43:08;;;;;;;10.83;6.97;;;;;;;;;;5011960;28;20417;-57
2023/07/12 06:45:34;;;;;;;9.70;6.37;;;;;;;;;;5011643;28;20503;-57
2023/07/12 06:48:00;;;;;;;7.73;5.40;;;;;;;;;;5011601;28;20525;-57
2023/07/12 06:50:25;;;;;;;10.13;6.50;;;;;;;;;;5014114;28;20433;-58
2023/07/12 06:52:51;;;;;;;11.80;7.23;;;;;;;;;;5013930;28;20436;-58
2023/07/12 06:55:17;;;;;;;9.23;6.57;;;;;;;;;;5015082;28;20475;-58
2023/07/12 06:57:43;;;;;;;9.33;6.20;;;;;;;;;;5014800;28;20982;-58
2023/07/12 07:00:10;;;;;;;11.07;6.90;;;;;;;;;;5014909;28;20452;-58
2023/07/12 07:02:37;;;;;;;8.27;6.70;;;;;;;;;;5015085;28;20920;-58
2023/07/12 07:05:05;;;;;;;8.13;6.50;;;;;;;;;;5015090;28;20447;-58
2023/07/12 07:07:31;;;;;;;9.50;6.97;;;;;;;;;;5015103;28;20506;-58
2023/07/12 07:09:59;;;;;;;7.43;6.53;;;;;;;;;;5014910;28;20840;-58
2023/07/12 07:12:25;;;;;;;9.03;6.20;;;;;;;;;;5014686;28;20441;-58
2023/07/12 07:14:52;;;;;;;10.17;6.80;;;;;;;;;;5014815;28;20898;-58
2023/07/12 07:17:18;;;;;;;11.50;6.20;;;;;;;;;;5014615;28;20567;-59
2023/07/12 07:19:46;;;;;;;8.90;6.30;;;;;;;;;;5014656;28;20496;-58
2023/07/12 07:22:12;;;;;;;12.63;6.03;;;;;;;;;;5014464;28;20428;-58
2023/07/12 07:24:38;;;;;;;7.70;5.87;;;;;;;;;;5014325;28;20774;-58
2023/07/12 07:27:05;;;;;;;8.07;6.00;;;;;;;;;;5014635;28;20418;-58
2023/07/12 07:29:31;;;;;;;7.73;6.30;;;;;;;;;;5014694;28;20905;-57
2023/07/12 07:31:57;;;;;;;15.80;6.53;;;;;;;;;;5014120;28;20841;-57
2023/07/12 07:34:22;;;;;;;6.10;5.50;;;;;;;;;;5014695;28;20414;-57
2023/07/12 07:36:48;;;;;;;9.10;6.00;;;;;;;;;;5014196;28;20419;-58
2023/07/12 07:39:14;;;;;;;6.40;5.90;;;;;;;;;;5014305;28;20518;-57
2023/07/12 07:41:43;;;;;;;13.70;5.97;;;;;;;;;;5014368;28;20548;-58
2023/07/12 07:44:09;;;;;;;6.77;5.47;;;;;;;;;;5014149;28;20495;-58
2023/07/12 07:46:35;;;;;;;8.17;5.90;;;;;;;;;;5014162;28;20503;-58
2023/07/12 07:49:01;;;;;;;9.90;6.10;;;;;;;;;;5012686;28;20444;-58
2023/07/12 07:51:27;;;;;;;8.60;6.20;;;;;;;;;;5014198;28;20554;-58
2023/07/12 07:53:53;;;;;;;9.73;5.87;;;;;;;;;;5013984;28;20441;-56
2023/07/12 07:56:20;;;;;;;8.77;5.40;;;;;;;;;;5013982;28;20431;-56
2023/07/12 07:58:46;;;;;;;14.10;5.30;;;;;;;;;;5014291;28;20957;-56
2023/07/12 08:01:12;;;;;;;6.63;5.43;;;;;;;;;;5013378;28;20540;-56
2023/07/12 08:03:40;;;;;;;15.67;4.87;;;;;;;;;;5014180;28;20424;-57
2023/07/12 08:06:07;;;;;;;5.10;4.67;;;;;;;;;;5014143;28;20502;-57
2023/07/12 08:08:34;;;;;;;10.77;5.20;;;;;;;;;;5014225;28;20578;-57
2023/07/12 08:11:00;;;;;;;7.20;5.00;;;;;;;;;;5014425;28;20446;-56
2023/07/12 08:13:26;;;;;;;5.90;5.43;;;;;;;;;;5014521;28;20507;-57
2023/07/12 08:15:55;;;;;;;14.97;5.57;;;;;;;;;;5014571;28;20499;-57
2023/07/12 08:18:22;;;;;;;17.60;5.50;;;;;;;;;;5013821;28;20467;-57
2023/07/12 08:20:48;;;;;;;5.67;5.13;;;;;;;;;;5013788;28;20996;-58
2023/07/12 08:23:14;;;;;;;8.57;5.60;;;;;;;;;;5013991;28;20502;-57
2023/07/12 08:25:40;;;;;;;5.20;4.70;;;;;;;;;;5013868;28;20886;-58
2023/07/12 08:28:06;;;;;;;10.53;5.63;;;;;;;;;;5013823;28;20482;-57
2023/07/12 08:30:32;;;;;;;11.70;5.80;;;;;;;;;;5013648;28;20431;-57
2023/07/12 08:32:58;;;;;;;6.33;5.30;;;;;;;;;;5013446;28;20498;-57
2023/07/12 08:35:24;;;;;;;12.90;5.63;;;;;;;;;;5013932;28;20499;-57
2023/07/12 08:37:50;;;;;;;6.17;5.20;;;;;;;;;;5013637;28;20520;-57
2023/07/12 08:40:16;;;;;;;5.10;4.60;;;;;;;;;;5013399;28;20505;-57
2023/07/12 08:42:43;;;;;;;11.00;4.90;;;;;;;;;;5013431;28;20875;-57
2023/07/12 08:45:25;;;;;;;17.43;5.73;;;;;;;;;;5013317;28;20434;-57
2023/07/12 08:47:53;;;;;;;17.27;5.50;;;;;;;;;;5013445;28;20445;-57
2023/07/12 08:50:21;;;;;;;6.37;4.70;;;;;;;;;;5012150;28;20426;-57
2023/07/12 08:52:46;;;;;;;5.93;5.07;;;;;;;;;;5013177;28;20425;-57
2023/07/12 08:55:18;;;;;;;18.23;5.97;;;;;;;;;;5013500;28;20424;-57
2023/07/12 08:57:45;;;;;;;5.73;5.23;;;;;;;;;;5012934;28;20503;-57
2023/07/12 09:00:14;;;;;;;10.70;4.50;;;;;;;;;;5013126;28;20905;-57
2023/07/12 09:02:40;;;;;;;9.90;5.60;;;;;;;;;;5011996;28;20974;-57
2023/07/12 09:05:12;;;;;;;4.93;4.43;;;;;;;;;;5013093;28;20408;-57
2023/07/12 09:07:38;;;;;;;5.20;4.90;;;;;;;;;;5013277;28;20447;-56
2023/07/12 09:10:05;;;;;;;8.63;5.03;;;;;;;;;;5013214;28;20438;-57
2023/07/12 09:12:34;;;;;;;6.10;4.67;;;;;;;;;;5012866;28;20444;-57
2023/07/12 09:15:05;;;;;;;4.83;4.43;;;;;;;;;;5013169;28;20418;-56
2023/07/12 09:17:34;;;;;;;7.23;5.23;;;;;;;;;;5013061;28;20468;-56
2023/07/12 09:20:00;;;;;;;5.33;4.80;;;;;;;;;;5012900;28;20842;-57
2023/07/12 09:22:28;;;;;;;5.53;4.30;;;;;;;;;;5012842;28;20439;-57
2023/07/12 09:24:58;;;;;;;4.73;4.43;;;;;;;;;;5012639;28;20506;-56
2023/07/12 09:27:25;;;;;;;6.70;4.30;;;;;;;;;;5012465;28;20428;-57
2023/07/12 09:29:58;;;;;;;9.17;4.60;;;;;;;;;;5012842;28;20401;-58
2023/07/12 09:32:28;;;;;;;5.73;4.30;;;;;;;;;;5012724;28;20432;-58
2023/07/12 09:34:54;;;;;;;9.10;4.90;;;;;;;;;;5012403;28;20427;-58
2023/07/12 09:37:24;;;;;;;5.40;5.00;;;;;;;;;;5012421;28;20464;-58
2023/07/12 09:40:00;;;;;;;6.80;4.50;;;;;;;;;;5012651;28;20413;-58
2023/07/12 09:42:27;;;;;;;5.47;4.40;;;;;;;;;;5012373;28;20785;-58
2023/07/12 09:44:53;;;;;;;8.87;4.90;;;;;;;;;;5012548;28;20421;-58
2023/07/12 09:47:33;;;;;;;6.43;4.87;;;;;;;;;;5012179;28;20444;-58
2023/07/12 09:50:06;;;;;;;4.97;4.57;;;;;;;;;;5012384;28;20459;-57
2023/07/12 09:52:34;;;;;;;10.17;4.70;;;;;;;;;;5012223;28;20535;-57
2023/07/12 09:55:05;;;;;;;5.90;5.00;;;;;;;;;;5011987;28;20476;-58
2023/07/12 09:57:55;;;;;;;18.93;5.17;;;;;;;;;;5012078;28;20531;-57
2023/07/12 10:00:27;;;;;;;10.40;4.97;;;;;;;;;;5012091;28;20436;-57
2023/07/12 10:03:13;;;;;;;5.10;4.70;;;;;;;;;;5012411;28;20849;-58
2023/07/12 10:05:44;;;;;;;10.40;5.00;;;;;;;;;;5011770;28;20772;-58
2023/07/12 10:08:12;;;;;;;5.43;4.90;;;;;;;;;;5012333;28;20467;-57
2023/07/12 10:10:57;;;;;;;9.83;4.53;;;;;;;;;;5010643;28;20421;-58
2023/07/12 10:13:29;;;;;;;5.90;4.90;;;;;;;;;;5012179;28;20440;-57
2023/07/12 10:15:56;;;;;;;5.13;4.70;;;;;;;;;;5010878;28;20451;-58
2023/07/12 10:18:25;;;;;;;5.97;4.90;;;;;;;;;;5012100;28;20514;-58
2023/07/12 10:20:53;;;;;;;5.67;5.07;;;;;;;;;;5012355;28;20429;-58
2023/07/12 10:23:24;;;;;;;8.30;4.20;;;;;;;;;;5012458;28;20559;-58
2023/07/12 10:25:55;;;;;;;4.83;4.57;;;;;;;;;;5015853;28;20425;-58
2023/07/12 10:28:24;;;;;;;6.43;5.40;;;;;;;;;;5016109;28;20860;-58
2023/07/12 10:30:51;;;;;;;5.97;4.73;;;;;;;;;;5015758;28;20428;-57
2023/07/12 10:33:27;;;;;;;5.13;4.70;;;;;;;;;;5015908;28;20448;-58
2023/07/12 10:35:59;;;;;;;8.17;4.50;;;;;;;;;;5014469;28;20420;-58
2023/07/12 10:38:28;;;;;;;6.10;4.80;;;;;;;;;;5015627;28;20483;-58
2023/07/12 10:40:57;;;;;;;5.00;4.70;;;;;;;;;;5015756;28;20415;-58
2023/07/12 10:43:27;;;;;;;7.43;4.47;;;;;;;;;;5015646;28;20440;-58
2023/07/12 10:45:59;;;;;;;7.63;5.07;;;;;;;;;;5015707;28;20463;-58
2023/07/12 10:48:28;;;;;;;6.57;4.67;;;;;;;;;;5015338;28;20447;-58
2023/07/12 10:50:56;;;;;;;4.97;3.93;;;;;;;;;;5015677;28;20794;-58
2023/07/12 10:53:27;;;;;;;5.43;3.80;;;;;;;;;;5015527;28;20451;-58
2023/07/12 10:56:10;;;;;;;8.43;4.40;;;;;;;;;;5015167;28;20455;-58
2023/07/12 10:58:50;;;;;;;6.23;3.50;;;;;;;;;;5015158;28;20476;-58
2023/07/12 11:01:36;;;;;;;3.93;3.53;;;;;;;;;;5014076;28;20958;-58
2023/07/12 11:04:07;;;;;;;5.00;3.43;;;;;;;;;;5015312;28;20440;-58
2023/07/12 11:06:33;;;;;;;5.40;3.00;;;;;;;;;;5015258;28;20420;-57
2023/07/12 11:08:59;;;;;;;5.30;3.30;;;;;;;;;;5015425;28;20814;-58
2023/07/12 11:11:30;;;;;;;9.37;2.90;;;;;;;;;;5015365;28;20437;-58
2023/07/12 11:14:11;;;;;;;3.33;3.00;;;;;;;;;;5014977;28;20443;-57
2023/07/12 11:16:44;;;;;;;6.83;2.90;;;;;;;;;;5015286;28;20420;-58
2023/07/12 11:19:30;;;;;;;3.87;3.10;;;;;;;;;;5014924;28;20476;-58
2023/07/12 11:21:59;;;;;;;5.47;3.40;;;;;;;;;;5014991;28;20412;-58
2023/07/12 11:24:39;;;;;;;3.70;2.80;;;;;;;;;;5014754;28;20461;-58
2023/07/12 11:27:09;;;;;;;10.63;3.00;;;;;;;;;;5014576;28;20919;-58
2023/07/12 11:29:36;;;;;;;3.03;2.73;;;;;;;;;;5014267;28;20431;-57
2023/07/12 11:32:14;;;;;;;3.33;3.10;;;;;;;;;;5014964;28;20463;-58
2023/07/12 11:34:43;;;;;;;2.90;2.53;;;;;;;;;;5014685;28;20435;-58
2023/07/12 11:37:17;;;;;;;2.97;2.80;;;;;;;;;;5013786;28;20540;-58
2023/07/12 11:39:46;;;;;;;3.77;3.00;;;;;;;;;;5013471;28;20440;-58
2023/07/12 11:42:22;;;;;;;2.90;2.70;;;;;;;;;;5014694;28;20417;-58
2023/07/12 11:45:06;;;;;;;4.40;2.90;;;;;;;;;;5014394;28;20404;-59
2023/07/12 11:47:32;;;;;;;4.00;3.40;;;;;;;;;;5013919;28;20470;-62
2023/07/12 11:50:00;;;;;;;5.20;3.30;;;;;;;;;;5014094;28;20421;-63
2023/07/12 11:52:27;;;;;;;3.23;2.90;;;;;;;;;;5014028;28;20428;-63
2023/07/12 11:54:53;;;;;;;2.83;2.73;;;;;;;;;;5014161;28;20433;-63
2023/07/12 11:57:19;;;;;;;5.33;3.40;;;;;;;;;;5013856;28;20471;-63
2023/07/12 11:59:47;;;;;;;5.80;3.20;;;;;;;;;;5013408;28;20456;-63
2023/07/12 12:02:18;;;;;;;3.40;3.10;;;;;;;;;;5013951;28;20478;-62
2023/07/12 12:04:48;;;;;;;3.30;3.00;;;;;;;;;;5012282;28;20456;-63
2023/07/12 12:07:22;;;;;;;6.13;3.60;;;;;;;;;;5013144;28;20523;-63
2023/07/12 12:09:48;;;;;;;7.03;3.20;;;;;;;;;;5013359;28;20449;-63
2023/07/12 12:12:19;;;;;;;5.90;3.40;;;;;;;;;;5013801;28;20444;-63
2023/07/12 12:14:47;;;;;;;6.13;3.80;;;;;;;;;;5013208;28;20774;-63
2023/07/12 12:17:15;;;;;;;6.17;3.80;;;;;;;;;;5014106;28;20843;-63
2023/07/12 12:19:41;;;;;;;5.40;3.67;;;;;;;;;;5013567;28;20435;-63
2023/07/12 12:22:15;;;;;;;6.40;3.83;;;;;;;;;;5013453;28;20779;-63
2023/07/12 12:24:43;;;;;;;3.90;3.70;;;;;;;;;;5013319;28;20435;-63
2023/07/12 12:27:18;;;;;;;6.60;3.87;;;;;;;;;;5013237;28;20976;-63
2023/07/12 12:29:47;;;;;;;3.63;3.53;;;;;;;;;;5012338;28;20441;-63
2023/07/12 12:32:16;;;;;;;6.00;4.50;;;;;;;;;;5013595;28;20815;-63
2023/07/12 12:34:51;;;;;;;4.17;3.87;;;;;;;;;;5013309;28;20781;-63
2023/07/12 12:37:21;;;;;;;7.60;4.13;;;;;;;;;;5013127;28;20456;-63
2023/07/12 12:39:58;;;;;;;4.87;4.33;;;;;;;;;;5013112;28;20409;-63
2023/07/12 12:42:27;;;;;;;6.23;4.20;;;;;;;;;;5013054;28;20447;-63
2023/07/12 12:44:55;;;;;;;6.80;4.00;;;;;;;;;;5013322;28;20496;-63
2023/07/12 12:47:22;;;;;;;6.13;3.33;;;;;;;;;;5012887;28;20923;-63
2023/07/12 12:49:49;;;;;;;4.73;4.40;;;;;;;;;;5011577;28;20491;-63
2023/07/12 12:52:27;;;;;;;4.73;4.43;;;;;;;;;;5013136;28;20412;-63
2023/07/12 12:54:57;;;;;;;3.90;3.70;;;;;;;;;;5012542;28;20786;-63
2023/07/12 12:57:23;;;;;;;7.30;4.30;;;;;;;;;;5012769;28;20460;-63
2023/07/12 12:59:49;;;;;;;4.50;3.97;;;;;;;;;;5012999;28;20796;-63
2023/07/12 13:02:18;;;;;;;5.23;3.90;;;;;;;;;;5011746;28;20413;-63
2023/07/12 13:04:45;;;;;;;5.77;4.33;;;;;;;;;;5012984;28;20444;-63
2023/07/12 13:07:14;;;;;;;6.97;3.70;;;;;;;;;;5011268;28;20462;-63
2023/07/12 13:09:40;;;;;;;10.07;4.30;;;;;;;;;;5012668;28;20433;-63
2023/07/12 13:12:14;;;;;;;4.83;4.40;;;;;;;;;;5012255;28;20955;-63
2023/07/12 13:14:40;;;;;;;4.53;4.13;;;;;;;;;;5012677;28;20432;-63
2023/07/12 13:17:13;;;;;;;4.07;3.73;;;;;;;;;;5011332;28;20760;-62
2023/07/12 13:19:39;;;;;;;4.23;4.00;;;;;;;;;;5012639;28;20436;-62
2023/07/12 13:22:09;;;;;;;3.73;3.47;;;;;;;;;;5012312;28;20551;-63
2023/07/12 13:24:35;;;;;;;5.93;4.07;;;;;;;;;;5012029;28;20488;-63
2023/07/12 13:27:01;;;;;;;7.93;4.30;;;;;;;;;;5012358;28;20459;-63
2023/07/12 13:29:27;;;;;;;4.17;3.40;;;;;;;;;;5012281;28;20440;-63
2023/07/12 13:31:53;;;;;;;5.53;3.70;;;;;;;;;;5012235;28;20425;-63
2023/07/12 13:34:19;;;;;;;6.60;3.90;;;;;;;;;;5012096;28;20539;-63
2023/07/12 13:36:46;;;;;;;12.60;4.30;;;;;;;;;;5011973;28;20409;-63
2023/07/12 13:39:19;;;;;;;6.77;4.13;;;;;;;;;;5012068;28;20517;-63
2023/07/12 13:41:46;;;;;;;5.13;3.70;;;;;;;;;;5012356;28;20413;-63
2023/07/12 13:44:15;;;;;;;3.53;3.27;;;;;;;;;;5010648;28;20443;-63
2023/07/12 13:46:43;;;;;;;4.13;3.70;;;;;;;;;;5012492;28;20392;-63
2023/07/12 13:49:13;;;;;;;5.27;3.83;;;;;;;;;;5012153;28;20444;-63
2023/07/12 13:51:39;;;;;;;7.80;3.03;;;;;;;;;;5012283;28;20409;-62
2023/07/12 13:54:05;;;;;;;3.90;3.70;;;;;;;;;;5012106;28;20475;-63
2023/07/12 13:56:31;;;;;;;3.83;3.53;;;;;;;;;;5012227;28;20483;-62
2023/07/12 13:58:57;;;;;;;5.90;5.50;;;;;;;;;;5012244;28;20461;-63
2023/07/12 14:01:25;;;;;;;3.47;3.17;;;;;;;;;;5016385;28;20980;-62
2023/07/12 14:03:51;;;;;;;4.70;4.30;;;;;;;;;;5016091;28;20752;-62
2023/07/12 14:06:17;;;;;;;7.70;5.30;;;;;;;;;;5016291;28;20914;-62
2023/07/12 14:08:47;;;;;;;4.50;4.30;;;;;;;;;;5016639;28;20906;-62
2023/07/12 14:11:26;;;;;;;4.60;3.50;;;;;;;;;;5016193;28;20968;-63
2023/07/12 14:13:52;;;;;;;5.40;3.47;;;;;;;;;;5015942;28;20908;-63
2023/07/12 14:16:19;;;;;;;3.73;3.50;;;;;;;;;;5016028;28;20498;-63
2023/07/12 14:18:45;;;;;;;4.80;3.40;;;;;;;;;;5016024;28;20468;-62
2023/07/12 14:21:15;;;;;;;7.33;4.43;;;;;;;;;;5016125;28;20405;-62
2023/07/12 14:23:43;;;;;;;4.57;3.93;;;;;;;;;;5016139;28;20424;-62
2023/07/12 14:26:17;;;;;;;3.60;3.50;;;;;;;;;;5016000;28;20521;-62
2023/07/12 14:28:44;;;;;;;4.47;4.10;;;;;;;;;;5015990;28;20423;-63
2023/07/12 14:31:13;;;;;;;10.43;4.20;;;;;;;;;;5015895;28;20451;-62
2023/07/12 14:33:39;;;;;;;10.23;4.50;;;;;;;;;;5015823;28;20938;-62
2023/07/12 14:36:05;;;;;;;6.00;4.90;;;;;;;;;;5015703;28;20454;-63
2023/07/12 14:38:31;;;;;;;8.87;4.63;;;;;;;;;;5015494;28;20464;-62
2023/07/12 14:40:58;;;;;;;4.10;3.70;;;;;;;;;;5015671;28;20437;-62
2023/07/12 14:43:24;;;;;;;4.30;4.10;;;;;;;;;;5015744;28;20979;-62